Seibert, Colorado
Current Conditions -  °F | °C
As of 8:53 AM on Friday 21 Nov 2014 (Local Time) from KITR Reporting Station
Clear Clear  
Wind Chill: 31°   Ceiling: Unl
Heat Index: 39°   Visibility: 10mi
Dew Point: 29°   Wind: 13mph
Humidity: 67%   Direction: 190°S
Pressure: 29.99"   Gusts: NA
Location:  39.3°N, 102.87°W
Report Text: KITR 211553Z AUTO 19011KT 10SM CLR 04/M02 A2999 RMK AO2 SLP154 T00391017
Loading
Personal Weather Stations






























Interactive Weather Map New forecast layout! Learn more

10-Day Weather Forecast

Advertisements
Track Severe Weather on mobile